createdAt,value
2023-03-31T00:00:32.000Z,3226.0
2023-03-31T00:01:32.000Z,3297.0
2023-03-31T00:02:33.000Z,3269.0
2023-03-31T00:03:32.000Z,3260.0
2023-03-31T00:04:32.000Z,3273.0
2023-03-31T00:05:32.000Z,3253.0
2023-03-31T00:06:32.000Z,3253.0
2023-03-31T00:07:33.000Z,3193.0
2023-03-31T00:08:32.000Z,3107.0
2023-03-31T00:09:32.000Z,3204.0
2023-03-31T00:10:32.000Z,3169.0
2023-03-31T00:11:32.000Z,3285.0
2023-03-31T00:12:33.000Z,3386.0
2023-03-31T00:13:32.000Z,3296.0
2023-03-31T00:14:32.000Z,3236.0
2023-03-31T00:15:33.000Z,3147.0
2023-03-31T00:16:32.000Z,3304.0
2023-03-31T00:17:32.000Z,3290.0
2023-03-31T00:18:32.000Z,3163.0
2023-03-31T00:19:32.000Z,3284.0
2023-03-31T00:20:33.000Z,3298.0
2023-03-31T00:21:32.000Z,3305.0
2023-03-31T00:22:32.000Z,3371.0
2023-03-31T00:23:33.000Z,3357.0
2023-03-31T00:24:32.000Z,3419.0
2023-03-31T00:25:33.000Z,3317.0
2023-03-31T00:26:32.000Z,3465.0
2023-03-31T00:27:32.000Z,3448.0
2023-03-31T00:28:33.000Z,3412.0
2023-03-31T00:29:32.000Z,3359.0
2023-03-31T00:30:32.000Z,3415.0
2023-03-31T00:31:32.000Z,3343.0
2023-03-31T00:32:32.000Z,3365.0
2023-03-31T00:33:33.000Z,3397.0
2023-03-31T00:34:32.000Z,3312.0
2023-03-31T00:35:32.000Z,3374.0
2023-03-31T00:36:32.000Z,3315.0
2023-03-31T00:37:32.000Z,3275.0
2023-03-31T00:38:32.000Z,3409.0
2023-03-31T00:39:32.000Z,3609.0
2023-03-31T00:40:32.000Z,3710.0
2023-03-31T00:41:33.000Z,3811.0
2023-03-31T00:42:32.000Z,3845.0
2023-03-31T00:43:32.000Z,3784.0
2023-03-31T00:44:33.000Z,3803.0
2023-03-31T00:45:32.000Z,3689.0
2023-03-31T00:46:32.000Z,3495.0
2023-03-31T00:47:32.000Z,3579.0
2023-03-31T00:48:32.000Z,3396.0
2023-03-31T00:49:33.000Z,3426.0
2023-03-31T00:50:32.000Z,3537.0
2023-03-31T00:51:32.000Z,3450.0
2023-03-31T00:52:33.000Z,3379.0
2023-03-31T00:53:32.000Z,3310.0
2023-03-31T00:54:32.000Z,3360.0
2023-03-31T00:55:32.000Z,3383.0
2023-03-31T00:56:32.000Z,3261.0
2023-03-31T00:57:33.000Z,3288.0
2023-03-31T00:58:32.000Z,3400.0
2023-03-31T00:59:32.000Z,3177.0
2023-03-31T01:00:33.000Z,3228.0
2023-03-31T01:01:32.000Z,3269.0
2023-03-31T01:02:33.000Z,3311.0
2023-03-31T01:03:32.000Z,3293.0
2023-03-31T01:04:32.000Z,3211.0
2023-03-31T01:05:33.000Z,3332.0
2023-03-31T01:06:32.000Z,3296.0
2023-03-31T01:07:32.000Z,3278.0
2023-03-31T01:08:32.000Z,3212.0
2023-03-31T01:09:32.000Z,3152.0
2023-03-31T01:10:33.000Z,3072.0
2023-03-31T01:11:32.000Z,3047.0
2023-03-31T01:12:32.000Z,3010.0
2023-03-31T01:13:32.000Z,2971.0
2023-03-31T01:14:32.000Z,3039.0
2023-03-31T01:15:32.000Z,3078.0
2023-03-31T01:16:32.000Z,3145.0
2023-03-31T01:17:32.000Z,3135.0
2023-03-31T01:18:33.000Z,3250.0
2023-03-31T01:19:32.000Z,3133.0
2023-03-31T01:20:32.000Z,3066.0
2023-03-31T01:21:32.000Z,3113.0
2023-03-31T01:22:32.000Z,3084.0
2023-03-31T01:23:33.000Z,3154.0
2023-03-31T01:24:32.000Z,3205.0
2023-03-31T01:25:32.000Z,3352.0
2023-03-31T01:26:33.000Z,3373.0
2023-03-31T01:27:32.000Z,3283.0
2023-03-31T01:28:32.000Z,3203.0
2023-03-31T01:29:32.000Z,3242.0
2023-03-31T01:30:32.000Z,3171.0
2023-03-31T01:31:33.000Z,3153.0
2023-03-31T01:32:32.000Z,3081.0
2023-03-31T01:33:32.000Z,2984.0
2023-03-31T01:34:32.000Z,3076.0
2023-03-31T01:35:32.000Z,3149.0
2023-03-31T01:36:33.000Z,3269.0
2023-03-31T01:37:32.000Z,3229.0
2023-03-31T01:38:32.000Z,3258.0
2023-03-31T01:39:33.000Z,3146.0
2023-03-31T01:40:32.000Z,3311.0
2023-03-31T01:41:32.000Z,3248.0
2023-03-31T01:42:32.000Z,3316.0
2023-03-31T01:43:32.000Z,3248.0
2023-03-31T01:44:32.000Z,3294.0
2023-03-31T01:45:32.000Z,3294.0
2023-03-31T01:46:32.000Z,3579.0
2023-03-31T01:47:33.000Z,3437.0
2023-03-31T01:48:32.000Z,3406.0
2023-03-31T01:49:32.000Z,3343.0
2023-03-31T01:50:32.000Z,3254.0
2023-03-31T01:51:32.000Z,3182.0
2023-03-31T01:52:33.000Z,3397.0
2023-03-31T01:53:32.000Z,3221.0
2023-03-31T01:54:32.000Z,3201.0
2023-03-31T01:55:32.000Z,3280.0
2023-03-31T01:56:32.000Z,3434.0
2023-03-31T01:57:33.000Z,3502.0
2023-03-31T01:58:32.000Z,3491.0
2023-03-31T01:59:32.000Z,3378.0
2023-03-31T02:00:33.000Z,3243.0
2023-03-31T02:01:32.000Z,3278.0
2023-03-31T02:02:32.000Z,3400.0
2023-03-31T02:03:32.000Z,3482.0
2023-03-31T02:04:32.000Z,3525.0
2023-03-31T02:05:33.000Z,3459.0
2023-03-31T02:06:32.000Z,3522.0
2023-03-31T02:07:32.000Z,3459.0
2023-03-31T02:08:32.000Z,3446.0
2023-03-31T02:09:32.000Z,3485.0
2023-03-31T02:10:33.000Z,3485.0
2023-03-31T02:11:32.000Z,3391.0
2023-03-31T02:12:32.000Z,3426.0
2023-03-31T02:13:33.000Z,3244.0
2023-03-31T02:14:32.000Z,3263.0
2023-03-31T02:15:32.000Z,3447.0
2023-03-31T02:16:32.000Z,3458.0
2023-03-31T02:17:32.000Z,3471.0
2023-03-31T02:18:33.000Z,3387.0
2023-03-31T02:19:32.000Z,3308.0
2023-03-31T02:20:32.000Z,3392.0
2023-03-31T02:21:32.000Z,3308.0
2023-03-31T02:22:32.000Z,3177.0
2023-03-31T02:23:33.000Z,3183.0
2023-03-31T02:24:32.000Z,3225.0
2023-03-31T02:25:32.000Z,3148.0
2023-03-31T02:26:33.000Z,3161.0
2023-03-31T02:27:32.000Z,3174.0
2023-03-31T02:28:32.000Z,3229.0
2023-03-31T02:29:32.000Z,3296.0
2023-03-31T02:30:32.000Z,3203.0
2023-03-31T02:31:33.000Z,3251.0
2023-03-31T02:32:32.000Z,3293.0
2023-03-31T02:33:32.000Z,3215.0
2023-03-31T02:34:32.000Z,3153.0
2023-03-31T02:35:32.000Z,3075.0
2023-03-31T02:36:33.000Z,3098.0
2023-03-31T02:37:32.000Z,3186.0
2023-03-31T02:38:32.000Z,3236.0
2023-03-31T02:39:33.000Z,3330.0
2023-03-31T02:40:32.000Z,3449.0
2023-03-31T02:41:32.000Z,3611.0
2023-03-31T02:42:32.000Z,3796.0
2023-03-31T02:43:32.000Z,3741.0
2023-03-31T02:44:32.000Z,3689.0
2023-03-31T02:45:32.000Z,3797.0
2023-03-31T02:46:32.000Z,3979.0
2023-03-31T02:47:33.000Z,3883.0
2023-03-31T02:48:32.000Z,3882.0
2023-03-31T02:49:32.000Z,3824.0
2023-03-31T02:50:32.000Z,3767.0
2023-03-31T02:51:32.000Z,3789.0
2023-03-31T02:52:33.000Z,3895.0
2023-03-31T02:53:32.000Z,3986.0
2023-03-31T02:54:32.000Z,3842.0
2023-03-31T02:55:32.000Z,3842.0
2023-03-31T02:56:32.000Z,3870.0
2023-03-31T02:57:33.000Z,3891.0
2023-03-31T02:58:32.000Z,3783.0
2023-03-31T02:59:32.000Z,3781.0
2023-03-31T03:00:33.000Z,3819.0
2023-03-31T03:01:32.000Z,3732.0
2023-03-31T03:02:32.000Z,3752.0
2023-03-31T03:03:32.000Z,3938.0
2023-03-31T03:04:32.000Z,3954.0
2023-03-31T03:05:33.000Z,4007.0
2023-03-31T03:06:32.000Z,4136.0
2023-03-31T03:07:32.000Z,4286.0
2023-03-31T03:08:32.000Z,4200.0
2023-03-31T03:09:32.000Z,4069.0
2023-03-31T03:10:33.000Z,3905.0
2023-03-31T03:11:32.000Z,3869.0
2023-03-31T03:12:32.000Z,3955.0
2023-03-31T03:13:33.000Z,3954.0
2023-03-31T03:14:32.000Z,3873.0
2023-03-31T03:15:32.000Z,3920.0
2023-03-31T03:16:32.000Z,3944.0
2023-03-31T03:17:32.000Z,3934.0
2023-03-31T03:18:33.000Z,3841.0
2023-03-31T03:19:32.000Z,3795.0
2023-03-31T03:20:32.000Z,3625.0
2023-03-31T03:21:31.000Z,3476.0
2023-03-31T03:22:32.000Z,3476.0
2023-03-31T03:23:33.000Z,3639.0
2023-03-31T03:24:32.000Z,3624.0
2023-03-31T03:25:32.000Z,3685.0
2023-03-31T03:26:33.000Z,3710.0
2023-03-31T03:27:32.000Z,3571.0
2023-03-31T03:28:32.000Z,3463.0
2023-03-31T03:29:32.000Z,3432.0
2023-03-31T03:30:32.000Z,3380.0
2023-03-31T03:31:33.000Z,3300.0
2023-03-31T03:32:32.000Z,3412.0
2023-03-31T03:33:32.000Z,3510.0
2023-03-31T03:34:32.000Z,3536.0
2023-03-31T03:35:32.000Z,3556.0
2023-03-31T03:36:32.000Z,3558.0
2023-03-31T03:37:32.000Z,3503.0
2023-03-31T03:38:32.000Z,3604.0
2023-03-31T03:39:33.000Z,3534.0
2023-03-31T03:40:32.000Z,3454.0
2023-03-31T03:41:32.000Z,3444.0
2023-03-31T03:42:32.000Z,3394.0
2023-03-31T03:43:32.000Z,3297.0
2023-03-31T03:44:32.000Z,3135.0
2023-03-31T03:45:32.000Z,3019.0
2023-03-31T03:46:32.000Z,3091.0
2023-03-31T03:47:33.000Z,3108.0
2023-03-31T03:48:32.000Z,3134.0
2023-03-31T03:49:32.000Z,3074.0
2023-03-31T03:50:33.000Z,2911.0
2023-03-31T03:51:32.000Z,2960.0
2023-03-31T03:52:32.000Z,2925.0
2023-03-31T03:53:32.000Z,2908.0
2023-03-31T03:54:32.000Z,2962.0
2023-03-31T03:55:33.000Z,3119.0
2023-03-31T03:56:32.000Z,2991.0
2023-03-31T03:57:32.000Z,3062.0
2023-03-31T03:58:31.000Z,3102.0
2023-03-31T03:59:32.000Z,3097.0
2023-03-31T04:00:32.000Z,3040.0
2023-03-31T04:01:32.000Z,3074.0
2023-03-31T04:02:32.000Z,2976.0
2023-03-31T04:03:33.000Z,2892.0
2023-03-31T04:04:32.000Z,2934.0
2023-03-31T04:05:32.000Z,3086.0
2023-03-31T04:06:32.000Z,3080.0
2023-03-31T04:07:32.000Z,2988.0
2023-03-31T04:08:33.000Z,2978.0
2023-03-31T04:09:32.000Z,3012.0
2023-03-31T04:10:32.000Z,2970.0
2023-03-31T04:11:31.000Z,2879.0
2023-03-31T04:12:32.000Z,2977.0
2023-03-31T04:13:32.000Z,3098.0
2023-03-31T04:14:32.000Z,2988.0
2023-03-31T04:15:32.000Z,3035.0
2023-03-31T04:16:33.000Z,2950.0
2023-03-31T04:17:32.000Z,2982.0
2023-03-31T04:18:32.000Z,3019.0
2023-03-31T04:19:32.000Z,3127.0
2023-03-31T04:20:32.000Z,3091.0
2023-03-31T04:21:33.000Z,3155.0
2023-03-31T04:22:32.000Z,3020.0
2023-03-31T04:23:32.000Z,3110.0
2023-03-31T04:24:31.000Z,3086.0
2023-03-31T04:25:32.000Z,3036.0
2023-03-31T04:26:32.000Z,2968.0
2023-03-31T04:27:32.000Z,3051.0
2023-03-31T04:28:32.000Z,3036.0
2023-03-31T04:29:33.000Z,3092.0
2023-03-31T04:30:32.000Z,2987.0
2023-03-31T04:31:32.000Z,2977.0
2023-03-31T04:32:32.000Z,2880.0
2023-03-31T04:33:32.000Z,2946.0
2023-03-31T04:34:33.000Z,2950.0
2023-03-31T04:35:32.000Z,2920.0
2023-03-31T04:36:32.000Z,2874.0
2023-03-31T04:37:31.000Z,2948.0
2023-03-31T04:38:32.000Z,3055.0
2023-03-31T04:39:32.000Z,3061.0
2023-03-31T04:40:32.000Z,3030.0
2023-03-31T04:41:32.000Z,3037.0
2023-03-31T04:42:33.000Z,2994.0
2023-03-31T04:43:32.000Z,2907.0
2023-03-31T04:44:32.000Z,2910.0
2023-03-31T04:45:33.000Z,2980.0
2023-03-31T04:46:32.000Z,3045.0
2023-03-31T04:47:32.000Z,3037.0
2023-03-31T04:48:31.000Z,3098.0
2023-03-31T04:49:32.000Z,3099.0
2023-03-31T04:50:32.000Z,3056.0
2023-03-31T04:51:32.000Z,3209.0
2023-03-31T04:52:32.000Z,3157.0
2023-03-31T04:53:33.000Z,3192.0
2023-03-31T04:54:32.000Z,2926.0
2023-03-31T04:55:32.000Z,2721.0
2023-03-31T04:56:32.000Z,2642.0
2023-03-31T04:57:32.000Z,2784.0
2023-03-31T04:58:33.000Z,2775.0
2023-03-31T04:59:32.000Z,2797.0
2023-03-31T05:00:32.000Z,2802.0
2023-03-31T05:01:33.000Z,2716.0
2023-03-31T05:02:32.000Z,2733.0
2023-03-31T05:03:32.000Z,2808.0
2023-03-31T05:04:32.000Z,2732.0
2023-03-31T05:05:32.000Z,2833.0
2023-03-31T05:06:33.000Z,2879.0
2023-03-31T05:07:32.000Z,2907.0
2023-03-31T05:08:32.000Z,2913.0
2023-03-31T05:09:32.000Z,2961.0
2023-03-31T05:10:32.000Z,2801.0
2023-03-31T05:11:33.000Z,2690.0
2023-03-31T05:12:32.000Z,2773.0
2023-03-31T05:13:32.000Z,2873.0
2023-03-31T05:14:31.000Z,2917.0
2023-03-31T05:15:32.000Z,2926.0
2023-03-31T05:16:32.000Z,2971.0
2023-03-31T05:17:32.000Z,3015.0
2023-03-31T05:18:32.000Z,2958.0
2023-03-31T05:19:33.000Z,2994.0
2023-03-31T05:20:32.000Z,3000.0
2023-03-31T05:21:32.000Z,2967.0
2023-03-31T05:22:32.000Z,2933.0
2023-03-31T05:23:32.000Z,2985.0
2023-03-31T05:24:33.000Z,2999.0
2023-03-31T05:25:32.000Z,2967.0
2023-03-31T05:26:32.000Z,2816.0
2023-03-31T05:27:33.000Z,2950.0
2023-03-31T05:28:32.000Z,2960.0
2023-03-31T05:29:32.000Z,2854.0
2023-03-31T05:30:32.000Z,2838.0
2023-03-31T05:31:32.000Z,2843.0
2023-03-31T05:32:33.000Z,2894.0
2023-03-31T05:33:32.000Z,2963.0
2023-03-31T05:34:32.000Z,2854.0
2023-03-31T05:35:32.000Z,2790.0
2023-03-31T05:36:32.000Z,2722.0
2023-03-31T05:37:32.000Z,2739.0
2023-03-31T05:38:32.000Z,2751.0
2023-03-31T05:39:32.000Z,2816.0
2023-03-31T05:40:31.000Z,2855.0
2023-03-31T05:41:32.000Z,2893.0
2023-03-31T05:42:32.000Z,2846.0
2023-03-31T05:43:32.000Z,3001.0
2023-03-31T05:44:32.000Z,2935.0
2023-03-31T05:45:33.000Z,3005.0
2023-03-31T05:46:32.000Z,2859.0
2023-03-31T05:47:32.000Z,2820.0
2023-03-31T05:48:31.000Z,2966.0
2023-03-31T05:49:32.000Z,2884.0
2023-03-31T05:50:32.000Z,2804.0
2023-03-31T05:51:32.000Z,2983.0
2023-03-31T05:52:32.000Z,2952.0
2023-03-31T05:53:33.000Z,2935.0
2023-03-31T05:54:32.000Z,2829.0
2023-03-31T05:55:32.000Z,2891.0
2023-03-31T05:56:32.000Z,2960.0
2023-03-31T05:57:32.000Z,2911.0
2023-03-31T05:58:33.000Z,2893.0
2023-03-31T05:59:32.000Z,2905.0
2023-03-31T06:00:32.000Z,2954.0
2023-03-31T06:01:31.000Z,2949.0
2023-03-31T06:02:32.000Z,3026.0
2023-03-31T06:03:32.000Z,3016.0
2023-03-31T06:04:32.000Z,2991.0
2023-03-31T06:05:32.000Z,2977.0
2023-03-31T06:06:33.000Z,2954.0
2023-03-31T06:07:32.000Z,2981.0
2023-03-31T06:08:32.000Z,2957.0
2023-03-31T06:09:32.000Z,2903.0
2023-03-31T06:10:32.000Z,2939.0
2023-03-31T06:11:33.000Z,2964.0
2023-03-31T06:12:32.000Z,2996.0
2023-03-31T06:13:32.000Z,2951.0
2023-03-31T06:14:31.000Z,2929.0
2023-03-31T06:15:32.000Z,2966.0
2023-03-31T06:16:32.000Z,2931.0
2023-03-31T06:17:32.000Z,2896.0
2023-03-31T06:18:32.000Z,2969.0
2023-03-31T06:19:33.000Z,3025.0
2023-03-31T06:20:32.000Z,3087.0
2023-03-31T06:21:32.000Z,3016.0
2023-03-31T06:22:32.000Z,2946.0
2023-03-31T06:23:32.000Z,3143.0
2023-03-31T06:24:33.000Z,3222.0
2023-03-31T06:25:32.000Z,3226.0
2023-03-31T06:27:31.000Z,3148.0
2023-03-31T06:28:32.000Z,3225.0
2023-03-31T06:29:32.000Z,3204.0
2023-03-31T06:30:32.000Z,3200.0
2023-03-31T06:31:32.000Z,3064.0
2023-03-31T06:32:33.000Z,3139.0
2023-03-31T06:33:32.000Z,3125.0
2023-03-31T06:34:32.000Z,3007.0
2023-03-31T06:35:32.000Z,2974.0
2023-03-31T06:36:32.000Z,3094.0
2023-03-31T06:37:33.000Z,3117.0
2023-03-31T06:38:32.000Z,2918.0
2023-03-31T06:39:32.000Z,2932.0
2023-03-31T06:40:31.000Z,2940.0
2023-03-31T06:41:32.000Z,3054.0
2023-03-31T06:42:32.000Z,2948.0
2023-03-31T06:43:32.000Z,2969.0
2023-03-31T06:44:32.000Z,2989.0
2023-03-31T06:45:33.000Z,2892.0
2023-03-31T06:46:32.000Z,2998.0
2023-03-31T06:47:32.000Z,3022.0
2023-03-31T06:48:31.000Z,3002.0
2023-03-31T06:49:32.000Z,3236.0
2023-03-31T06:50:32.000Z,3178.0
2023-03-31T06:51:32.000Z,3200.0
2023-03-31T06:52:32.000Z,3288.0
2023-03-31T06:53:33.000Z,3329.0
2023-03-31T06:54:32.000Z,3232.0
2023-03-31T06:55:32.000Z,3122.0
2023-03-31T06:56:32.000Z,3154.0
2023-03-31T06:57:32.000Z,3115.0
2023-03-31T06:58:33.000Z,3158.0
2023-03-31T06:59:32.000Z,3195.0
2023-03-31T07:00:32.000Z,3371.0
2023-03-31T07:01:31.000Z,3317.0
2023-03-31T07:02:32.000Z,3351.0
2023-03-31T07:03:32.000Z,3472.0
2023-03-31T07:04:32.000Z,3510.0
2023-03-31T07:05:32.000Z,3383.0
2023-03-31T07:06:33.000Z,3399.0
2023-03-31T07:07:32.000Z,3376.0
2023-03-31T07:08:32.000Z,3286.0
2023-03-31T07:09:32.000Z,3332.0
2023-03-31T07:10:32.000Z,3368.0
2023-03-31T07:11:33.000Z,3604.0
2023-03-31T07:12:32.000Z,3612.0
2023-03-31T07:13:32.000Z,3591.0
2023-03-31T07:14:31.000Z,3645.0
2023-03-31T07:15:32.000Z,3616.0
2023-03-31T07:16:32.000Z,3742.0
2023-03-31T07:17:32.000Z,3578.0
2023-03-31T07:18:32.000Z,3606.0
2023-03-31T07:19:33.000Z,3641.0
2023-03-31T07:20:32.000Z,3654.0
2023-03-31T07:21:32.000Z,3896.0
2023-03-31T07:22:32.000Z,3971.0
2023-03-31T07:23:32.000Z,3899.0
2023-03-31T07:24:32.000Z,3952.0
2023-03-31T07:25:32.000Z,4125.0
2023-03-31T07:26:32.000Z,4181.0
2023-03-31T07:27:31.000Z,4109.0
2023-03-31T07:28:32.000Z,4212.0
2023-03-31T07:29:32.000Z,4181.0
2023-03-31T07:30:32.000Z,4089.0
2023-03-31T07:31:32.000Z,4090.0
2023-03-31T07:32:33.000Z,4110.0
2023-03-31T07:33:32.000Z,4052.0
2023-03-31T07:34:32.000Z,4172.0
2023-03-31T07:35:31.000Z,4085.0
2023-03-31T07:36:32.000Z,4343.0
2023-03-31T07:37:33.000Z,4522.0
2023-03-31T07:38:32.000Z,4468.0
2023-03-31T07:39:32.000Z,4481.0
2023-03-31T07:40:33.000Z,3966.0
2023-03-31T07:41:32.000Z,4242.0
2023-03-31T07:42:32.000Z,4299.0
2023-03-31T07:43:32.000Z,4424.0
2023-03-31T07:44:32.000Z,4555.0
2023-03-31T07:45:32.000Z,4805.0
2023-03-31T07:46:32.000Z,4904.0
2023-03-31T07:47:32.000Z,4997.0
2023-03-31T07:48:31.000Z,5268.0
2023-03-31T07:49:32.000Z,6232.0
2023-03-31T07:50:32.000Z,7235.0
2023-03-31T07:51:32.000Z,8291.0
2023-03-31T07:52:32.000Z,8197.0
2023-03-31T07:53:33.000Z,7026.0
2023-03-31T07:54:32.000Z,6356.0
2023-03-31T07:55:32.000Z,6022.0
2023-03-31T07:56:31.000Z,5728.0
2023-03-31T07:57:32.000Z,5573.0
2023-03-31T07:58:33.000Z,5299.0
2023-03-31T07:59:32.000Z,5506.0
2023-03-31T08:00:32.000Z,5483.0
2023-03-31T08:01:31.000Z,5633.0
2023-03-31T08:02:32.000Z,5416.0
2023-03-31T08:03:32.000Z,5083.0
2023-03-31T08:04:32.000Z,5006.0
2023-03-31T08:05:32.000Z,4746.0
2023-03-31T08:06:33.000Z,4519.0
2023-03-31T08:07:32.000Z,4257.0
2023-03-31T08:08:32.000Z,4275.0
2023-03-31T08:09:32.000Z,4273.0
2023-03-31T08:10:32.000Z,4352.0
2023-03-31T08:11:32.000Z,4285.0
2023-03-31T08:12:32.000Z,4474.0
2023-03-31T08:13:32.000Z,4384.0
2023-03-31T08:14:31.000Z,4290.0
2023-03-31T08:15:32.000Z,4305.0
2023-03-31T08:16:32.000Z,4400.0
2023-03-31T08:17:32.000Z,4402.0
2023-03-31T08:18:32.000Z,4465.0
2023-03-31T08:19:33.000Z,4402.0
2023-03-31T08:20:32.000Z,4270.0
2023-03-31T08:21:32.000Z,4160.0
2023-03-31T08:22:31.000Z,4218.0
2023-03-31T08:23:32.000Z,4440.0
2023-03-31T08:24:32.000Z,4279.0
2023-03-31T08:25:32.000Z,4363.0
2023-03-31T08:26:32.000Z,4137.0
2023-03-31T08:27:33.000Z,4018.0
2023-03-31T08:28:32.000Z,4141.0
2023-03-31T08:29:32.000Z,4329.0
2023-03-31T08:30:32.000Z,4383.0
2023-03-31T08:31:32.000Z,4284.0
2023-03-31T08:32:33.000Z,4502.0
2023-03-31T08:33:32.000Z,4648.0
2023-03-31T08:34:32.000Z,4356.0
2023-03-31T08:35:31.000Z,4345.0
2023-03-31T08:36:32.000Z,4160.0
2023-03-31T08:37:32.000Z,4163.0
2023-03-31T08:38:32.000Z,4305.0
2023-03-31T08:39:32.000Z,4075.0
2023-03-31T08:40:31.000Z,4167.0
2023-03-31T08:41:32.000Z,4098.0
2023-03-31T08:42:32.000Z,4240.0
2023-03-31T08:43:32.000Z,4114.0
2023-03-31T08:44:32.000Z,4163.0
2023-03-31T08:45:32.000Z,4103.0
2023-03-31T08:46:32.000Z,4025.0
2023-03-31T08:47:32.000Z,4117.0
2023-03-31T08:48:31.000Z,4062.0
2023-03-31T08:49:32.000Z,4076.0
2023-03-31T08:50:32.000Z,3957.0
2023-03-31T08:51:32.000Z,3963.0
2023-03-31T08:52:32.000Z,4108.0
2023-03-31T08:53:33.000Z,4055.0
2023-03-31T08:54:32.000Z,4388.0
2023-03-31T08:55:32.000Z,4581.0
2023-03-31T08:56:32.000Z,4528.0
2023-03-31T08:57:32.000Z,4477.0
2023-03-31T08:58:33.000Z,4185.0
2023-03-31T08:59:32.000Z,3964.0
2023-03-31T09:00:32.000Z,3651.0
2023-03-31T09:01:31.000Z,3734.0
2023-03-31T09:02:32.000Z,3601.0
2023-03-31T09:03:32.000Z,3550.0
2023-03-31T09:04:32.000Z,3374.0
2023-03-31T09:05:32.000Z,3262.0
2023-03-31T09:06:33.000Z,3221.0
2023-03-31T09:07:32.000Z,3145.0
2023-03-31T09:08:32.000Z,3096.0
2023-03-31T09:09:32.000Z,3151.0
2023-03-31T09:10:32.000Z,3248.0
2023-03-31T09:11:32.000Z,3142.0
2023-03-31T09:12:32.000Z,3140.0
2023-03-31T09:13:32.000Z,3149.0
2023-03-31T09:14:31.000Z,3313.0
2023-03-31T09:15:32.000Z,3332.0
2023-03-31T09:16:32.000Z,3310.0
2023-03-31T09:17:32.000Z,3329.0
2023-03-31T09:18:32.000Z,3221.0
2023-03-31T09:19:33.000Z,3252.0
2023-03-31T09:20:32.000Z,3107.0
2023-03-31T09:21:32.000Z,3286.0
2023-03-31T09:22:31.000Z,3227.0
2023-03-31T09:23:32.000Z,3407.0
2023-03-31T09:24:33.000Z,3451.0
2023-03-31T09:25:32.000Z,3457.0
2023-03-31T09:26:32.000Z,3424.0
2023-03-31T09:27:31.000Z,3552.0
2023-03-31T09:28:32.000Z,3460.0
2023-03-31T09:29:32.000Z,3216.0
2023-03-31T09:30:32.000Z,3253.0
2023-03-31T09:31:32.000Z,3296.0
2023-03-31T09:32:33.000Z,3155.0
2023-03-31T09:33:32.000Z,3214.0
2023-03-31T09:34:32.000Z,3190.0
2023-03-31T09:35:32.000Z,3220.0
2023-03-31T09:36:32.000Z,3330.0
2023-03-31T09:37:32.000Z,3363.0
2023-03-31T09:38:32.000Z,3351.0
2023-03-31T09:39:32.000Z,3356.0
2023-03-31T09:40:31.000Z,3325.0
2023-03-31T09:41:32.000Z,3325.0
2023-03-31T09:42:32.000Z,3727.0
2023-03-31T09:43:32.000Z,3850.0
2023-03-31T09:44:32.000Z,3811.0
2023-03-31T09:45:33.000Z,3702.0
2023-03-31T09:46:32.000Z,3570.0
2023-03-31T09:47:32.000Z,3617.0
2023-03-31T09:48:31.000Z,3536.0
2023-03-31T09:49:32.000Z,3472.0
2023-03-31T09:50:32.000Z,3239.0
2023-03-31T09:51:32.000Z,3352.0
2023-03-31T09:52:32.000Z,3146.0
2023-03-31T09:53:31.000Z,3210.0
2023-03-31T09:54:32.000Z,3036.0
2023-03-31T09:55:32.000Z,2957.0
2023-03-31T09:56:32.000Z,2951.0
2023-03-31T09:57:32.000Z,2988.0
2023-03-31T09:58:33.000Z,2941.0
2023-03-31T09:59:32.000Z,2894.0
2023-03-31T10:00:32.000Z,2907.0
2023-03-31T10:01:31.000Z,2975.0
2023-03-31T10:02:32.000Z,2895.0
2023-03-31T10:03:32.000Z,2838.0
2023-03-31T10:04:32.000Z,2735.0
2023-03-31T10:05:32.000Z,2477.0
2023-03-31T10:06:33.000Z,2404.0
2023-03-31T10:07:32.000Z,2547.0
2023-03-31T10:08:32.000Z,2697.0
2023-03-31T10:09:32.000Z,2802.0
2023-03-31T10:10:32.000Z,3084.0
2023-03-31T10:11:33.000Z,3025.0
2023-03-31T10:12:32.000Z,3140.0
2023-03-31T10:13:32.000Z,3352.0
2023-03-31T10:14:31.000Z,3261.0
2023-03-31T10:15:32.000Z,3316.0
2023-03-31T10:16:32.000Z,3384.0
2023-03-31T10:17:32.000Z,3431.0
2023-03-31T10:19:31.000Z,3293.0
2023-03-31T10:20:32.000Z,3201.0
2023-03-31T10:21:32.000Z,3137.0
2023-03-31T10:22:32.000Z,3147.0
2023-03-31T10:23:32.000Z,3290.0
2023-03-31T10:24:33.000Z,3250.0
2023-03-31T10:25:32.000Z,3128.0
2023-03-31T10:26:32.000Z,3078.0
2023-03-31T10:27:31.000Z,3099.0
2023-03-31T10:28:32.000Z,2847.0
2023-03-31T10:29:32.000Z,2814.0
2023-03-31T10:30:32.000Z,2911.0
2023-03-31T10:31:32.000Z,3060.0
2023-03-31T10:32:33.000Z,2953.0
2023-03-31T10:33:32.000Z,2870.0
2023-03-31T10:34:32.000Z,2944.0
2023-03-31T10:35:32.000Z,2927.0
2023-03-31T10:36:32.000Z,2932.0
2023-03-31T10:37:32.000Z,2993.0
2023-03-31T10:38:32.000Z,3009.0
2023-03-31T10:39:32.000Z,3167.0
2023-03-31T10:40:31.000Z,3122.0
2023-03-31T10:41:32.000Z,3117.0
2023-03-31T10:42:32.000Z,3158.0
2023-03-31T10:43:32.000Z,3007.0
2023-03-31T10:44:32.000Z,3063.0
2023-03-31T10:45:32.000Z,3100.0
2023-03-31T10:46:32.000Z,3211.0
2023-03-31T10:47:32.000Z,3139.0
2023-03-31T10:48:33.000Z,2712.0
2023-03-31T10:49:32.000Z,2253.0
2023-03-31T10:50:32.000Z,2503.0
2023-03-31T10:51:31.000Z,2702.0
2023-03-31T10:52:32.000Z,2799.0
2023-03-31T10:53:32.000Z,2874.0
2023-03-31T10:54:32.000Z,3024.0
2023-03-31T10:55:32.000Z,3026.0
2023-03-31T10:56:33.000Z,3116.0
2023-03-31T10:57:32.000Z,3113.0
2023-03-31T10:58:32.000Z,3135.0
2023-03-31T10:59:31.000Z,3251.0
2023-03-31T11:00:32.000Z,3098.0
2023-03-31T11:01:33.000Z,3125.0
2023-03-31T11:02:32.000Z,3213.0
2023-03-31T11:03:32.000Z,3132.0
2023-03-31T11:04:31.000Z,3037.0
2023-03-31T11:05:32.000Z,2948.0
2023-03-31T11:06:32.000Z,2999.0
2023-03-31T11:07:32.000Z,3025.0
2023-03-31T11:08:32.000Z,3124.0
2023-03-31T11:09:33.000Z,3053.0
2023-03-31T11:10:32.000Z,3085.0
2023-03-31T11:11:32.000Z,3101.0
2023-03-31T11:12:32.000Z,3068.0
2023-03-31T11:13:32.000Z,2897.0
2023-03-31T11:14:32.000Z,2821.0
2023-03-31T11:15:32.000Z,2903.0
2023-03-31T11:16:32.000Z,2930.0
2023-03-31T11:17:31.000Z,2983.0
2023-03-31T11:18:32.000Z,3212.0
2023-03-31T11:19:32.000Z,3197.0
2023-03-31T11:20:32.000Z,3080.0
2023-03-31T11:21:32.000Z,3071.0
2023-03-31T11:22:33.000Z,3102.0
2023-03-31T11:23:32.000Z,3380.0
2023-03-31T11:24:32.000Z,3438.0
2023-03-31T11:25:31.000Z,3313.0
2023-03-31T11:26:32.000Z,3302.0
2023-03-31T11:27:33.000Z,3116.0
2023-03-31T11:28:32.000Z,3188.0
2023-03-31T11:29:32.000Z,3228.0
2023-03-31T11:30:31.000Z,3198.0
2023-03-31T11:31:32.000Z,3150.0
2023-03-31T11:32:32.000Z,3157.0
2023-03-31T11:33:32.000Z,3049.0
2023-03-31T11:34:32.000Z,3098.0
2023-03-31T11:35:33.000Z,3340.0
2023-03-31T11:36:32.000Z,3323.0
2023-03-31T11:37:32.000Z,3202.0
2023-03-31T11:38:31.000Z,3149.0
2023-03-31T11:39:32.000Z,3293.0
2023-03-31T11:40:32.000Z,3229.0
2023-03-31T11:41:32.000Z,3318.0
2023-03-31T11:42:32.000Z,3414.0
2023-03-31T11:43:31.000Z,3379.0
2023-03-31T11:44:32.000Z,3369.0
2023-03-31T11:45:32.000Z,3460.0
2023-03-31T11:46:33.000Z,3468.0
2023-03-31T11:47:32.000Z,3479.0
2023-03-31T11:48:32.000Z,3600.0
2023-03-31T11:49:31.000Z,3539.0
2023-03-31T11:50:32.000Z,3433.0
2023-03-31T11:51:32.000Z,3369.0
2023-03-31T11:52:32.000Z,3219.0
2023-03-31T11:53:32.000Z,3164.0
2023-03-31T11:54:33.000Z,3126.0
2023-03-31T11:55:32.000Z,3099.0
2023-03-31T11:56:32.000Z,3276.0
2023-03-31T11:57:32.000Z,3161.0
2023-03-31T11:58:32.000Z,3012.0
2023-03-31T11:59:32.000Z,2823.0
2023-03-31T12:00:32.000Z,2837.0
2023-03-31T12:01:32.000Z,2905.0
2023-03-31T12:02:31.000Z,2913.0
2023-03-31T12:03:32.000Z,2949.0
2023-03-31T12:04:32.000Z,2957.0
2023-03-31T12:05:32.000Z,2933.0
2023-03-31T12:06:32.000Z,2988.0
2023-03-31T12:07:31.000Z,3004.0
2023-03-31T12:08:32.000Z,3039.0
2023-03-31T12:09:32.000Z,3076.0
2023-03-31T12:10:32.000Z,3116.0
2023-03-31T12:11:32.000Z,3171.0
2023-03-31T12:12:33.000Z,3266.0
2023-03-31T12:13:32.000Z,3163.0
2023-03-31T12:14:32.000Z,3228.0
2023-03-31T12:15:31.000Z,3111.0
2023-03-31T12:16:32.000Z,3175.0
2023-03-31T12:17:32.000Z,3175.0
2023-03-31T12:18:32.000Z,3097.0
2023-03-31T12:19:32.000Z,3141.0
2023-03-31T12:20:33.000Z,2962.0
2023-03-31T12:21:32.000Z,2927.0
2023-03-31T12:22:32.000Z,3017.0
2023-03-31T12:23:32.000Z,3006.0
2023-03-31T12:24:32.000Z,3116.0
2023-03-31T12:25:32.000Z,3209.0
2023-03-31T12:26:32.000Z,3038.0
2023-03-31T12:27:32.000Z,3258.0
2023-03-31T12:28:31.000Z,3354.0
2023-03-31T12:29:32.000Z,3256.0
2023-03-31T12:30:32.000Z,3284.0